createdAt,value
2022-09-28T00:00:54.761Z,4.25
2022-09-28T00:03:59.308Z,3.65
2022-09-28T00:07:02.259Z,3.08
2022-09-28T00:10:05.517Z,4.68
2022-09-28T00:13:08.387Z,3.60
2022-09-28T00:16:14.120Z,3.92
2022-09-28T00:19:17.296Z,3.53
2022-09-28T00:22:20.233Z,3.95
2022-09-28T00:25:24.960Z,2.65
2022-09-28T00:28:27.824Z,2.90
2022-09-28T00:31:34.058Z,3.58
2022-09-28T00:34:40.715Z,2.47
2022-09-28T00:37:43.588Z,4.10
2022-09-28T00:40:46.585Z,2.60
2022-09-28T00:43:49.693Z,3.40
2022-09-28T00:47:31.229Z,2.72
2022-09-28T00:50:35.250Z,2.83
2022-09-28T00:53:39.058Z,2.47
2022-09-28T00:56:42.915Z,2.28
2022-09-28T00:59:45.873Z,2.63
2022-09-28T01:02:49.066Z,2.55
2022-09-28T01:05:52.891Z,3.53
2022-09-28T01:08:58.582Z,3.00
2022-09-28T01:12:01.732Z,3.47
2022-09-28T01:15:05.592Z,3.70
2022-09-28T01:18:17.689Z,2.95
2022-09-28T01:21:21.836Z,3.08
2022-09-28T01:24:32.459Z,3.08
2022-09-28T01:27:42.496Z,2.60
2022-09-28T01:30:58.325Z,2.67
2022-09-28T01:34:23.968Z,3.70
2022-09-28T01:37:36.838Z,2.70
2022-09-28T01:40:40.281Z,3.72
2022-09-28T01:43:46.043Z,2.97
2022-09-28T01:46:49.938Z,8.50
2022-09-28T01:49:58.066Z,4.35
2022-09-28T01:53:09.326Z,3.40
2022-09-28T01:56:34.981Z,4.35
2022-09-28T01:59:38.618Z,2.72
2022-09-28T02:02:59.565Z,2.37
2022-09-28T02:06:24.152Z,3.10
2022-09-28T02:09:33.787Z,2.15
2022-09-28T02:12:43.614Z,2.58
2022-09-28T02:15:54.054Z,3.00
2022-09-28T02:18:57.088Z,2.53
2022-09-28T02:22:07.155Z,2.00
2022-09-28T02:25:38.144Z,3.65
2022-09-28T02:28:41.400Z,2.50
2022-09-28T02:31:44.412Z,3.17
2022-09-28T02:34:47.459Z,3.90
2022-09-28T02:37:50.426Z,2.45
2022-09-28T02:41:13.841Z,14.27
2022-09-28T02:44:39.582Z,4.07
2022-09-28T02:48:12.186Z,2.50
2022-09-28T02:51:26.393Z,2.90
2022-09-28T02:54:43.121Z,2.58
2022-09-28T02:57:51.886Z,5.53
2022-09-28T03:01:25.703Z,2.95
2022-09-28T03:04:30.534Z,3.00
2022-09-28T03:07:46.622Z,3.57
2022-09-28T03:11:04.128Z,2.20
2022-09-28T03:14:08.246Z,5.10
2022-09-28T03:17:21.278Z,7.25
2022-09-28T03:20:24.507Z,7.70
2022-09-28T03:23:27.412Z,3.83
2022-09-28T03:26:30.306Z,6.65
2022-09-28T03:29:34.436Z,11.35
2022-09-28T03:32:41.080Z,5.07
2022-09-28T03:35:48.089Z,4.95
2022-09-28T03:38:55.127Z,5.20
2022-09-28T03:42:01.047Z,5.65
2022-09-28T03:45:05.987Z,11.18
2022-09-28T03:48:09.480Z,13.75
2022-09-28T03:51:12.996Z,10.48
2022-09-28T03:54:15.929Z,13.30
2022-09-28T03:57:18.804Z,16.15
2022-09-28T04:00:21.890Z,10.75
2022-09-28T04:03:25.525Z,9.48
2022-09-28T04:06:29.134Z,7.20
2022-09-28T04:09:32.158Z,19.03
2022-09-28T04:12:35.071Z,13.13
2022-09-28T04:15:38.546Z,13.32
2022-09-28T04:18:42.390Z,6.40
2022-09-28T04:22:08.935Z,8.93
2022-09-28T04:25:11.920Z,8.53
2022-09-28T04:28:33.965Z,8.30
2022-09-28T04:31:47.536Z,7.38
2022-09-28T04:34:51.883Z,6.47
2022-09-28T04:37:55.039Z,8.02
2022-09-28T04:40:58.044Z,9.17
2022-09-28T04:44:01.121Z,8.30
2022-09-28T04:47:05.284Z,9.35
2022-09-28T04:50:08.814Z,9.65
2022-09-28T04:53:31.682Z,10.13
2022-09-28T04:56:35.376Z,10.33
2022-09-28T04:59:38.328Z,9.43
2022-09-28T05:02:41.292Z,11.25
2022-09-28T05:06:03.050Z,12.52
2022-09-28T05:09:18.011Z,9.30
2022-09-28T05:12:21.516Z,9.97
2022-09-28T05:15:24.491Z,9.55
2022-09-28T05:18:27.447Z,9.07
2022-09-28T05:21:38.126Z,10.90
2022-09-28T05:24:41.671Z,11.02
2022-09-28T05:27:45.290Z,15.53
2022-09-28T05:31:05.364Z,16.05
2022-09-28T05:34:26.849Z,25.10
2022-09-28T05:37:31.358Z,21.30
2022-09-28T05:40:34.398Z,27.02
2022-09-28T05:43:38.538Z,11.43
2022-09-28T05:46:41.742Z,12.88
2022-09-28T05:49:46.310Z,13.15
2022-09-28T05:53:01.157Z,11.05
2022-09-28T05:56:04.373Z,15.05
2022-09-28T05:59:09.389Z,10.13
2022-09-28T06:02:13.025Z,10.05
2022-09-28T06:05:16.339Z,10.80
2022-09-28T06:08:19.363Z,10.95
2022-09-28T06:11:29.674Z,10.07
2022-09-28T06:14:34.969Z,8.43
2022-09-28T06:17:37.902Z,11.85
2022-09-28T06:21:01.478Z,6.68
2022-09-28T06:24:10.883Z,4.45
2022-09-28T06:27:14.059Z,5.05
2022-09-28T06:30:18.027Z,6.23
2022-09-28T06:33:21.933Z,7.93
2022-09-28T06:36:24.942Z,5.30
2022-09-28T06:39:27.815Z,3.17
2022-09-28T06:42:31.055Z,5.95
2022-09-28T06:45:54.441Z,5.87
2022-09-28T06:49:01.828Z,6.53
2022-09-28T06:52:33.312Z,6.05
2022-09-28T06:55:43.512Z,6.72
2022-09-28T06:58:46.742Z,6.13
2022-09-28T07:01:49.937Z,4.47
2022-09-28T07:05:03.861Z,3.22
2022-09-28T07:08:16.767Z,5.40
2022-09-28T07:11:54.897Z,3.17
2022-09-28T07:15:03.841Z,5.28
2022-09-28T07:18:08.084Z,6.40
2022-09-28T07:21:23.362Z,5.38
2022-09-28T07:24:29.823Z,3.72
2022-09-28T07:27:51.431Z,4.25
2022-09-28T07:31:15.620Z,3.22
2022-09-28T07:34:27.109Z,3.97
2022-09-28T07:37:41.371Z,3.30
2022-09-28T07:41:02.943Z,3.97
2022-09-28T07:44:06.269Z,4.18
2022-09-28T07:47:11.083Z,5.10
2022-09-28T07:50:33.916Z,5.63
2022-09-28T07:53:45.842Z,4.30
2022-09-28T07:57:07.033Z,3.78
2022-09-28T08:00:23.958Z,3.88
2022-09-28T08:03:27.299Z,3.70
2022-09-28T08:06:31.242Z,6.30
2022-09-28T08:09:35.357Z,4.30
2022-09-28T08:12:59.232Z,3.47
2022-09-28T08:16:28.468Z,5.10
2022-09-28T08:20:15.989Z,3.60
2022-09-28T08:23:19.950Z,5.30
2022-09-28T08:26:23.158Z,3.22
2022-09-28T08:29:26.953Z,5.30
2022-09-28T08:32:50.243Z,3.97
2022-09-28T08:36:11.775Z,3.63
2022-09-28T08:39:34.773Z,4.13
2022-09-28T08:43:13.296Z,4.65
2022-09-28T08:46:44.907Z,4.63
2022-09-28T08:50:15.243Z,6.95
2022-09-28T08:53:35.751Z,8.63
2022-09-28T08:56:50.458Z,5.33
2022-09-28T08:59:58.490Z,6.70
2022-09-28T09:03:12.381Z,4.80
2022-09-28T09:06:38.422Z,4.53
2022-09-28T09:10:39.951Z,5.70
2022-09-28T09:14:11.827Z,5.57
2022-09-28T09:17:21.409Z,3.85
2022-09-28T09:20:59.112Z,3.67
2022-09-28T09:24:49.859Z,4.95
2022-09-28T09:28:20.974Z,4.85
2022-09-28T09:31:29.839Z,6.17
2022-09-28T09:34:52.547Z,5.82
2022-09-28T09:38:27.846Z,4.68
2022-09-28T09:42:11.328Z,5.50
2022-09-28T09:45:45.114Z,4.93
2022-09-28T09:49:20.575Z,4.60
2022-09-28T09:52:52.016Z,4.00
2022-09-28T09:55:58.320Z,5.25
2022-09-28T09:59:15.298Z,5.75
2022-09-28T10:02:40.620Z,5.97
2022-09-28T10:06:00.321Z,5.13
2022-09-28T10:09:23.925Z,5.13
2022-09-28T10:12:27.209Z,4.35
2022-09-28T10:15:32.413Z,6.45
2022-09-28T10:18:45.258Z,5.90
2022-09-28T10:21:51.910Z,5.20
2022-09-28T10:25:02.140Z,5.00
2022-09-28T10:28:06.338Z,4.80
2022-09-28T10:31:37.273Z,4.53
2022-09-28T10:34:45.451Z,6.00
2022-09-28T10:38:04.638Z,4.97
2022-09-28T10:41:17.260Z,4.25
2022-09-28T10:44:28.849Z,4.88
2022-09-28T10:47:50.173Z,7.43
2022-09-28T10:51:05.748Z,7.38
2022-09-28T10:54:16.179Z,5.20
2022-09-28T10:57:33.874Z,4.68
2022-09-28T11:00:43.692Z,7.22
2022-09-28T11:04:06.745Z,4.28
2022-09-28T11:07:26.540Z,5.35
2022-09-28T11:10:30.746Z,7.33
2022-09-28T11:13:50.414Z,5.50
2022-09-28T11:17:26.366Z,4.55
2022-09-28T11:20:30.732Z,5.57
2022-09-28T11:23:36.064Z,4.82
2022-09-28T11:26:56.432Z,7.93
2022-09-28T11:30:02.291Z,6.60
2022-09-28T11:33:35.389Z,7.63
2022-09-28T11:37:41.831Z,7.97
2022-09-28T11:41:12.833Z,6.72
2022-09-28T11:44:38.355Z,8.27
2022-09-28T11:48:08.231Z,6.90
2022-09-28T11:51:17.842Z,6.22
2022-09-28T11:54:28.984Z,5.82
2022-09-28T11:57:36.540Z,5.75
2022-09-28T12:00:52.061Z,5.87
2022-09-28T12:04:08.447Z,8.95
2022-09-28T12:07:26.020Z,6.03
2022-09-28T12:10:36.184Z,4.72
2022-09-28T12:13:48.152Z,5.32
2022-09-28T12:17:20.096Z,5.60
2022-09-28T12:20:30.995Z,6.93
2022-09-28T12:23:35.828Z,5.03
2022-09-28T12:27:05.136Z,4.90
2022-09-28T12:30:15.952Z,4.38
2022-09-28T12:33:19.010Z,5.13
2022-09-28T12:36:30.526Z,4.30
2022-09-28T12:40:18.165Z,7.25
2022-09-28T12:43:40.696Z,5.22
2022-09-28T12:47:20.222Z,6.22
2022-09-28T12:50:40.672Z,4.50
2022-09-28T12:53:55.315Z,3.65
2022-09-28T12:57:02.129Z,4.25
2022-09-28T13:00:25.251Z,3.28
2022-09-28T13:03:50.909Z,3.60
2022-09-28T13:07:26.365Z,3.63
2022-09-28T13:10:37.469Z,3.63
2022-09-28T13:13:49.253Z,5.72
2022-09-28T13:17:12.404Z,3.65
2022-09-28T13:20:31.199Z,4.38
2022-09-28T13:23:42.529Z,3.90
2022-09-28T13:26:45.811Z,2.85
2022-09-28T13:29:50.309Z,3.33
2022-09-28T13:32:54.305Z,3.53
2022-09-28T13:35:57.237Z,5.75
2022-09-28T13:39:00.759Z,2.90
2022-09-28T13:42:03.868Z,6.18
2022-09-28T13:45:22.066Z,4.22
2022-09-28T13:49:06.665Z,4.50
2022-09-28T13:52:30.226Z,3.13
2022-09-28T13:55:37.762Z,4.43
2022-09-28T13:59:22.389Z,2.97
2022-09-28T14:02:32.768Z,4.18
2022-09-28T14:05:48.809Z,4.03
2022-09-28T14:09:08.200Z,4.53
2022-09-28T14:12:35.622Z,2.43
2022-09-28T14:15:43.779Z,7.30
2022-09-28T14:18:51.097Z,4.00
2022-09-28T14:21:58.097Z,2.67
2022-09-28T14:25:17.185Z,2.95
2022-09-28T14:28:54.516Z,3.23
2022-09-28T14:32:20.260Z,4.40
2022-09-28T14:35:33.224Z,3.72
2022-09-28T14:39:03.940Z,4.25
2022-09-28T14:42:15.712Z,4.05
2022-09-28T14:45:19.386Z,3.60
2022-09-28T14:48:43.513Z,3.45
2022-09-28T14:51:55.931Z,5.43
2022-09-28T14:54:58.980Z,5.10
2022-09-28T14:58:01.904Z,5.03
2022-09-28T15:01:07.019Z,4.03
2022-09-28T15:04:10.608Z,3.55
2022-09-28T15:07:28.649Z,3.55
2022-09-28T15:10:39.139Z,3.60
2022-09-28T15:13:42.075Z,3.80
2022-09-28T15:16:44.953Z,4.60
2022-09-28T15:20:10.977Z,3.92
2022-09-28T15:23:27.033Z,8.90
2022-09-28T15:26:31.694Z,4.22
2022-09-28T15:29:34.624Z,10.07
2022-09-28T15:32:37.520Z,9.97
2022-09-28T15:35:40.816Z,6.30
2022-09-28T15:38:43.958Z,9.63
2022-09-28T15:41:47.726Z,10.98
2022-09-28T15:45:23.084Z,11.45
2022-09-28T15:48:53.363Z,7.00
2022-09-28T15:51:56.651Z,8.60
2022-09-28T15:55:01.101Z,5.68
2022-09-28T15:58:17.513Z,4.10
2022-09-28T16:01:36.751Z,3.35
2022-09-28T16:04:55.883Z,5.67
2022-09-28T16:07:59.064Z,7.05
2022-09-28T16:11:20.407Z,3.83
2022-09-28T16:14:24.161Z,4.82
2022-09-28T16:17:35.156Z,3.70
2022-09-28T16:20:39.027Z,4.17
2022-09-28T16:23:42.223Z,7.05
2022-09-28T16:26:45.402Z,4.82
2022-09-28T16:30:09.047Z,4.60
2022-09-28T16:33:32.619Z,3.83
2022-09-28T16:36:45.367Z,5.53
2022-09-28T16:39:48.592Z,5.65
2022-09-28T16:42:51.592Z,5.30
2022-09-28T16:46:16.018Z,4.30
2022-09-28T16:49:19.373Z,4.57
2022-09-28T16:52:42.292Z,5.00
2022-09-28T16:55:46.097Z,6.38
2022-09-28T16:58:50.289Z,7.38
2022-09-28T17:01:56.299Z,10.18
2022-09-28T17:04:59.334Z,10.43
2022-09-28T17:08:03.358Z,6.90
2022-09-28T17:11:20.222Z,5.18
2022-09-28T17:14:26.490Z,5.95
2022-09-28T17:17:31.515Z,6.72
2022-09-28T17:20:34.540Z,5.07
2022-09-28T17:23:37.564Z,5.90
2022-09-28T17:26:41.873Z,6.03
2022-09-28T17:29:44.798Z,6.38
2022-09-28T17:32:47.866Z,4.88
2022-09-28T17:35:52.439Z,5.32
2022-09-28T17:38:55.562Z,4.63
2022-09-28T17:41:58.476Z,4.70
2022-09-28T17:45:01.415Z,5.13
2022-09-28T17:48:04.967Z,5.03
2022-09-28T17:51:12.036Z,13.15
2022-09-28T17:54:16.949Z,6.20
2022-09-28T17:57:19.889Z,4.95
2022-09-28T18:00:27.153Z,6.00
2022-09-28T18:03:30.170Z,5.75
2022-09-28T18:06:37.288Z,6.10
2022-09-28T18:09:40.394Z,5.70
2022-09-28T18:12:43.540Z,5.35
2022-09-28T18:15:46.476Z,5.50
2022-09-28T18:18:49.550Z,6.25
2022-09-28T18:21:52.481Z,6.20
2022-09-28T18:24:55.415Z,8.00
2022-09-28T18:28:00.006Z,7.38
2022-09-28T18:31:08.438Z,7.10
2022-09-28T18:34:12.401Z,6.68
2022-09-28T18:37:15.301Z,6.20
2022-09-28T18:40:19.466Z,5.63
2022-09-28T18:43:23.592Z,7.32
2022-09-28T18:46:29.763Z,7.22
2022-09-28T18:49:33.655Z,6.80
2022-09-28T18:52:37.676Z,6.38
2022-09-28T18:55:41.465Z,5.93
2022-09-28T18:58:44.840Z,7.60
2022-09-28T19:01:47.878Z,9.35
2022-09-28T19:04:50.822Z,8.07
2022-09-28T19:07:54.180Z,8.95
2022-09-28T19:11:07.635Z,9.93
2022-09-28T19:14:16.809Z,6.50
2022-09-28T19:17:20.255Z,7.72
2022-09-28T19:20:23.405Z,6.22
2022-09-28T19:23:26.298Z,8.20
2022-09-28T19:26:29.358Z,7.50
2022-09-28T19:29:32.234Z,6.82
2022-09-28T19:32:35.196Z,6.82
2022-09-28T19:35:39.748Z,7.18
2022-09-28T19:38:42.655Z,8.30
2022-09-28T19:41:49.291Z,7.40
2022-09-28T19:44:52.387Z,8.40
2022-09-28T19:47:59.593Z,6.95
2022-09-28T19:51:04.265Z,8.50
2022-09-28T19:54:07.350Z,9.93
2022-09-28T19:57:11.577Z,8.23
2022-09-28T20:00:14.646Z,6.93
2022-09-28T20:03:18.615Z,7.00
2022-09-28T20:06:22.214Z,7.28
2022-09-28T20:09:25.122Z,8.18
2022-09-28T20:12:28.021Z,7.03
2022-09-28T20:15:31.330Z,5.47
2022-09-28T20:18:35.377Z,6.80
2022-09-28T20:21:38.323Z,5.43
2022-09-28T20:24:41.242Z,6.50
2022-09-28T20:27:44.163Z,7.07
2022-09-28T20:30:47.148Z,7.20
2022-09-28T20:33:50.597Z,6.90
2022-09-28T20:36:54.029Z,6.13
2022-09-28T20:39:57.986Z,5.43
2022-09-28T20:43:00.961Z,5.73
2022-09-28T20:46:04.328Z,6.25
2022-09-28T20:49:07.774Z,5.45
2022-09-28T20:52:10.904Z,7.68
2022-09-28T20:55:13.881Z,6.93
2022-09-28T20:58:16.809Z,10.83
2022-09-28T21:01:21.700Z,9.00
2022-09-28T21:04:24.636Z,6.93
2022-09-28T21:07:27.556Z,7.97
2022-09-28T21:10:30.893Z,7.72
2022-09-28T21:13:33.847Z,9.87
2022-09-28T21:16:36.819Z,7.75
2022-09-28T21:19:39.748Z,6.32
2022-09-28T21:22:42.720Z,6.15
2022-09-28T21:25:45.641Z,6.40
2022-09-28T21:28:48.502Z,7.57
2022-09-28T21:31:51.438Z,6.65
2022-09-28T21:34:55.723Z,7.43
2022-09-28T21:37:58.645Z,7.80
2022-09-28T21:41:01.683Z,6.80
2022-09-28T21:44:05.084Z,7.13
2022-09-28T21:47:07.977Z,8.43
2022-09-28T21:50:10.849Z,7.65
2022-09-28T21:53:13.719Z,6.57
2022-09-28T21:56:16.679Z,7.78
2022-09-28T21:59:19.569Z,7.20
2022-09-28T22:02:23.182Z,7.20
2022-09-28T22:05:26.179Z,8.20
2022-09-28T22:08:29.061Z,7.63
2022-09-28T22:11:32.035Z,6.88
2022-09-28T22:14:34.891Z,7.47
2022-09-28T22:17:37.886Z,7.97
2022-09-28T22:20:40.763Z,8.85
2022-09-28T22:23:43.790Z,6.90
2022-09-28T22:26:46.664Z,7.70
2022-09-28T22:29:51.039Z,6.80
2022-09-28T22:32:53.944Z,7.43
2022-09-28T22:35:56.868Z,8.35
2022-09-28T22:39:00.408Z,9.80
2022-09-28T22:42:03.288Z,8.75
2022-09-28T22:45:06.673Z,8.63
2022-09-28T22:48:10.112Z,8.35
2022-09-28T22:51:13.056Z,7.65
2022-09-28T22:54:16.421Z,8.85
2022-09-28T22:57:19.432Z,7.35
2022-09-28T23:00:22.288Z,7.13
2022-09-28T23:03:25.188Z,8.10
2022-09-28T23:06:30.319Z,7.85
2022-09-28T23:09:33.287Z,8.38
2022-09-28T23:12:36.199Z,7.30
2022-09-28T23:15:39.186Z,7.30
2022-09-28T23:18:42.138Z,8.55
2022-09-28T23:21:46.180Z,7.57
2022-09-28T23:24:49.122Z,7.47
2022-09-28T23:27:51.997Z,8.48
2022-09-28T23:30:55.026Z,8.70
2022-09-28T23:34:03.750Z,7.28
2022-09-28T23:37:06.655Z,9.35
2022-09-28T23:40:09.918Z,7.65
2022-09-28T23:43:13.302Z,8.85
2022-09-28T23:46:20.497Z,7.60
2022-09-28T23:49:24.075Z,7.88
2022-09-28T23:52:26.942Z,7.75
2022-09-28T23:55:29.872Z,9.48
2022-09-28T23:58:32.779Z,9.13
